Time;durP1;ratioP1;P1;durP2;ratioP2;P2;SDS_P1;SDS_P2;PMS_P1;PMS_P2;Temp;Humidity;BMP_temperature;BMP_pressure;BME280_temperature;BME280_humidity;BME280_pressure;Samples;Min_cycle;Max_cycle;Signal;HPM_P1;HPM_P2
2021/03/22 00:02:49;;;;;;;9.70;5.53;;;7.70;37.30;;;;;;10437892;28;20225;-69
2021/03/22 00:07:54;;;;;;;9.33;5.30;;;7.70;37.30;;;;;;10442806;28;20229;-70
2021/03/22 00:12:57;;;;;;;10.03;5.27;;;7.60;37.10;;;;;;10440800;28;20715;-71
2021/03/22 00:18:06;;;;;;;10.23;5.30;;;7.60;37.10;;;;;;10439854;28;20713;-71
2021/03/22 00:23:10;;;;;;;10.07;4.90;;;7.60;37.10;;;;;;10438268;28;20229;-71
2021/03/22 00:28:17;;;;;;;9.10;5.50;;;7.60;37.00;;;;;;10435847;28;20573;-71
2021/03/22 00:33:21;;;;;;;6.83;4.20;;;7.60;37.20;;;;;;10436875;28;20244;-70
2021/03/22 00:38:24;;;;;;;11.90;4.70;;;7.50;37.00;;;;;;10436444;28;20739;-69
2021/03/22 00:43:27;;;;;;;9.80;5.10;;;7.50;37.00;;;;;;10441958;28;20227;-71
2021/03/22 00:48:31;;;;;;;8.80;4.17;;;7.50;36.90;;;;;;10438033;28;20229;-70
2021/03/22 00:53:34;;;;;;;13.67;5.20;;;7.50;37.00;;;;;;10440524;28;20228;-71
2021/03/22 00:58:37;;;;;;;10.37;4.50;;;7.50;36.90;;;;;;10438540;28;20708;-71
2021/03/22 01:03:39;;;;;;;12.43;4.97;;;7.40;36.90;;;;;;10438412;28;20228;-69
2021/03/22 01:08:42;;;;;;;10.53;4.87;;;7.40;36.90;;;;;;10440798;28;20319;-71
2021/03/22 01:13:47;;;;;;;10.03;4.60;;;7.40;37.00;;;;;;10479887;22;20251;-75
2021/03/22 01:18:55;;;;;;;11.03;4.87;;;7.40;37.00;;;;;;10520370;28;20621;-75
2021/03/22 01:23:57;;;;;;;10.67;4.63;;;7.30;36.90;;;;;;10521413;28;20223;-76
2021/03/22 01:29:05;;;;;;;11.00;4.87;;;7.30;36.90;;;;;;10523221;28;20769;-75
2021/03/22 01:34:07;;;;;;;9.30;4.70;;;7.30;37.00;;;;;;10521033;28;20477;-75
2021/03/22 01:39:15;;;;;;;12.83;4.97;;;7.30;36.90;;;;;;10522100;28;20233;-75
2021/03/22 01:44:24;;;;;;;11.60;4.47;;;7.20;36.90;;;;;;10522381;28;20323;-75
2021/03/22 01:49:30;;;;;;;10.83;4.50;;;7.20;37.00;;;;;;10523163;28;20310;-76
2021/03/22 01:54:33;;;;;;;8.77;4.10;;;7.10;37.00;;;;;;10535634;22;20685;-73
2021/03/22 01:59:36;;;;;;;8.17;3.87;;;7.10;36.90;;;;;;10524346;28;20676;-74
2021/03/22 02:04:39;;;;;;;9.13;3.90;;;7.10;37.00;;;;;;10531080;28;20233;-74
2021/03/22 02:09:41;;;;;;;13.77;4.10;;;7.00;36.90;;;;;;10522123;28;20216;-74
2021/03/22 02:14:45;;;;;;;11.53;4.10;;;7.00;37.10;;;;;;10523127;28;20231;-74
2021/03/22 02:20:28;;;;;;;12.60;4.30;;;7.00;37.10;;;;;;10522436;28;20226;-74
2021/03/22 02:25:34;;;;;;;6.87;3.50;;;7.00;37.40;;;;;;10519658;28;20229;-73
2021/03/22 02:31:04;;;;;;;9.70;3.60;;;6.90;37.10;;;;;;10523965;28;20223;-73
2021/03/22 02:36:10;;;;;;;10.33;3.77;;;6.90;37.40;;;;;;10525181;28;20228;-74
2021/03/22 02:41:17;;;;;;;17.03;4.33;;;6.90;37.10;;;;;;10529901;28;20597;-73
2021/03/22 02:46:19;;;;;;;13.37;3.87;;;6.90;37.00;;;;;;10523581;28;20243;-73
2021/03/22 02:51:29;;;;;;;14.87;4.10;;;6.80;37.00;;;;;;10530876;28;20516;-74
2021/03/22 02:56:41;;;;;;;13.50;3.87;;;6.80;37.20;;;;;;10529327;28;20231;-73
2021/03/22 03:01:47;;;;;;;13.00;3.53;;;6.80;37.20;;;;;;10534847;28;20215;-73
2021/03/22 03:06:55;;;;;;;10.80;3.30;;;6.80;37.20;;;;;;10526459;28;20318;-73
2021/03/22 03:12:08;;;;;;;10.43;3.43;;;6.80;37.10;;;;;;10529980;28;20227;-73
2021/03/22 03:17:10;;;;;;;9.57;3.10;;;6.80;37.00;;;;;;10529050;28;20219;-73
2021/03/22 03:22:13;;;;;;;10.23;3.13;;;6.80;37.00;;;;;;10522371;28;20223;-73
2021/03/22 03:27:16;;;;;;;16.03;4.10;;;6.80;37.20;;;;;;10527686;28;20249;-74
2021/03/22 03:32:21;;;;;;;12.10;3.77;;;6.80;37.10;;;;;;10528574;28;20695;-73
2021/03/22 03:37:24;;;;;;;13.17;3.57;;;6.80;37.10;;;;;;10528444;28;20227;-74
2021/03/22 03:42:26;;;;;;;11.77;3.30;;;6.80;36.90;;;;;;10529169;28;20234;-74
2021/03/22 03:47:28;;;;;;;10.30;3.50;;;6.80;36.90;;;;;;10528255;28;20579;-73
2021/03/22 03:52:31;;;;;;;12.83;3.23;;;6.80;37.00;;;;;;10525276;28;20219;-74
2021/03/22 03:57:34;;;;;;;11.27;3.20;;;6.80;37.10;;;;;;10525777;28;20223;-74
2021/03/22 04:02:36;;;;;;;8.93;3.10;;;6.80;37.00;;;;;;10527502;28;20219;-74
2021/03/22 04:07:39;;;;;;;13.03;3.70;;;6.80;36.90;;;;;;10527807;28;20231;-73
2021/03/22 04:12:42;;;;;;;12.03;3.20;;;6.80;36.90;;;;;;10527464;28;20230;-73
2021/03/22 04:17:44;;;;;;;18.13;4.10;;;6.70;36.90;;;;;;10527085;28;20231;-74
2021/03/22 04:22:47;;;;;;;12.17;3.30;;;6.70;37.00;;;;;;10522410;28;20302;-74
2021/03/22 04:27:50;;;;;;;12.00;3.20;;;6.60;36.80;;;;;;10526609;28;20230;-74
2021/03/22 04:32:52;;;;;;;9.00;3.07;;;6.60;37.00;;;;;;10526327;28;20223;-73
2021/03/22 04:37:56;;;;;;;11.20;3.13;;;6.60;37.10;;;;;;10526834;28;20232;-73
2021/03/22 04:42:58;;;;;;;10.97;2.97;;;6.50;37.10;;;;;;10526263;28;20230;-73
2021/03/22 04:48:00;;;;;;;13.53;3.27;;;6.60;37.10;;;;;;10522400;28;20235;-73
2021/03/22 04:53:03;;;;;;;13.43;3.37;;;6.60;37.20;;;;;;10524631;28;20318;-73
2021/03/22 04:58:06;;;;;;;12.70;3.30;;;6.60;37.30;;;;;;10523451;28;20234;-73
2021/03/22 05:03:10;;;;;;;11.57;3.13;;;6.60;37.20;;;;;;10514127;28;20241;-74
2021/03/22 05:08:16;;;;;;;13.00;3.80;;;6.60;37.20;;;;;;10525168;28;20269;-73
2021/03/22 05:13:20;;;;;;;12.57;3.63;;;6.60;37.30;;;;;;10523145;28;20318;-74
2021/03/22 05:18:24;;;;;;;11.27;3.27;;;6.50;37.20;;;;;;10523283;28;20292;-74
2021/03/22 05:23:28;;;;;;;11.13;3.20;;;6.50;37.10;;;;;;10524670;28;20262;-73
2021/03/22 05:28:32;;;;;;;9.73;2.77;;;6.50;37.10;;;;;;10524104;28;20893;-73
2021/03/22 05:33:35;;;;;;;10.43;3.00;;;6.50;37.10;;;;;;10525185;28;20231;-74
2021/03/22 05:38:38;;;;;;;9.50;2.90;;;6.50;37.00;;;;;;10518573;28;20226;-73
2021/03/22 05:44:04;;;;;;;12.20;2.80;;;6.50;36.90;;;;;;10524028;28;20712;-73
2021/03/22 05:49:18;;;;;;;12.47;3.20;;;6.60;37.10;;;;;;10517445;28;20691;-73
2021/03/22 05:54:42;;;;;;;12.50;3.07;;;6.60;36.90;;;;;;10515389;28;20235;-73
2021/03/22 05:59:47;;;;;;;11.80;3.20;;;6.50;36.90;;;;;;10520250;28;20226;-73
2021/03/22 06:04:52;;;;;;;11.30;3.23;;;6.50;36.80;;;;;;10523688;28;20249;-73
2021/03/22 06:10:00;;;;;;;11.93;3.20;;;6.50;36.90;;;;;;10512914;28;20246;-73
2021/03/22 06:15:14;;;;;;;8.80;2.67;;;6.50;37.00;;;;;;10531936;28;20219;-74
2021/03/22 06:20:20;;;;;;;12.40;3.20;;;6.50;37.10;;;;;;10531140;28;20256;-73
2021/03/22 06:25:31;;;;;;;9.77;2.77;;;6.50;36.90;;;;;;10531983;28;20318;-74
2021/03/22 06:30:33;;;;;;;10.50;3.13;;;6.50;36.90;;;;;;10527670;28;20314;-73
2021/03/22 06:35:36;;;;;;;9.77;2.57;;;6.50;36.90;;;;;;10531082;28;20254;-73
2021/03/22 06:40:40;;;;;;;15.00;3.70;;;6.50;36.90;;;;;;10531118;28;20220;-73
2021/03/22 06:45:43;;;;;;;11.97;2.80;;;6.50;36.90;;;;;;10531727;28;20224;-73
2021/03/22 06:50:47;;;;;;;8.83;2.80;;;6.50;36.90;;;;;;10530724;28;20304;-73
2021/03/22 06:55:50;;;;;;;10.00;3.37;;;6.60;36.90;;;;;;10526260;28;20313;-73
2021/03/22 07:01:13;;;;;;;12.03;2.80;;;6.60;36.80;;;;;;10520776;28;20254;-72
2021/03/22 07:06:18;;;;;;;12.53;3.43;;;6.70;36.80;;;;;;10524882;28;20299;-71
2021/03/22 07:11:23;;;;;;;10.60;3.10;;;6.70;36.90;;;;;;10535852;28;20592;-74
2021/03/22 07:16:28;;;;;;;9.73;2.93;;;6.80;36.90;;;;;;10535680;28;20310;-74
2021/03/22 07:21:32;;;;;;;9.20;2.90;;;6.90;37.00;;;;;;10533294;28;20243;-74
2021/03/22 07:26:59;;;;;;;15.03;3.37;;;7.00;36.90;;;;;;10536727;28;20266;-74
2021/03/22 07:32:13;;;;;;;11.10;3.33;;;7.00;36.50;;;;;;10540008;28;20285;-74
2021/03/22 07:37:26;;;;;;;10.80;2.80;;;7.10;36.60;;;;;;10536804;28;20687;-74
2021/03/22 07:42:44;;;;;;;9.70;3.10;;;7.10;36.60;;;;;;10533353;28;20671;-73
2021/03/22 07:48:09;;;;;;;11.30;2.93;;;7.20;36.80;;;;;;10544962;28;20276;-74
2021/03/22 07:53:16;;;;;;;9.77;2.77;;;7.20;36.70;;;;;;10536088;28;20222;-72
2021/03/22 07:58:51;;;;;;;13.37;3.80;;;7.30;36.30;;;;;;10536318;28;20322;-72
2021/03/22 08:04:27;;;;;;;9.90;3.10;;;7.30;35.90;;;;;;10536218;28;20222;-72
2021/03/22 08:09:43;;;;;;;8.67;3.00;;;7.20;35.80;;;;;;10521691;28;20219;-72
2021/03/22 08:14:46;;;;;;;11.50;3.20;;;7.20;36.00;;;;;;10535613;28;20233;-72
2021/03/22 08:19:55;;;;;;;13.27;3.30;;;7.30;36.20;;;;;;10534604;28;20255;-71
2021/03/22 08:25:15;;;;;;;11.80;3.10;;;7.30;36.30;;;;;;10532393;28;20281;-72
2021/03/22 08:30:30;;;;;;;9.60;3.40;;;7.40;36.30;;;;;;10530156;28;20215;-71
2021/03/22 08:35:38;;;;;;;12.37;3.27;;;7.40;36.50;;;;;;10534229;28;20246;-70
2021/03/22 08:40:49;;;;;;;11.53;3.27;;;7.50;36.20;;;;;;10524122;28;20227;-71
2021/03/22 08:46:06;;;;;;;9.63;3.13;;;7.50;36.10;;;;;;10533083;28;20242;-71
2021/03/22 08:51:20;;;;;;;13.37;3.57;;;7.50;35.70;;;;;;10521533;28;20264;-71
2021/03/22 08:56:28;;;;;;;11.53;3.40;;;7.60;35.70;;;;;;10527919;28;20227;-72
2021/03/22 09:01:34;;;;;;;12.60;3.37;;;7.60;36.20;;;;;;10531770;28;20234;-71
2021/03/22 09:06:57;;;;;;;14.67;4.07;;;7.60;36.30;;;;;;10535185;28;20725;-72
2021/03/22 09:12:02;;;;;;;9.47;3.30;;;7.70;35.80;;;;;;10528472;28;20226;-71
2021/03/22 09:17:23;;;;;;;12.67;3.63;;;7.60;35.90;;;;;;10531342;28;20228;-72
2021/03/22 09:23:00;;;;;;;7.20;3.00;;;7.60;36.00;;;;;;10533319;28;20242;-72
2021/03/22 09:28:33;;;;;;;8.83;3.40;;;7.70;36.00;;;;;;10526638;28;20227;-73
2021/03/22 09:33:57;;;;;;;14.43;3.60;;;7.70;36.00;;;;;;10527201;28;20678;-74
2021/03/22 09:39:02;;;;;;;12.97;3.73;;;7.80;35.80;;;;;;10522039;28;20768;-74
2021/03/22 09:44:11;;;;;;;13.50;3.33;;;7.80;36.20;;;;;;10526610;28;20219;-72
2021/03/22 09:49:23;;;;;;;11.80;3.40;;;7.90;36.20;;;;;;10530790;28;20701;-71
2021/03/22 09:54:38;;;;;;;9.50;3.40;;;8.00;35.60;;;;;;10532485;28;20235;-73
2021/03/22 10:00:06;;;;;;;13.17;3.60;;;8.10;35.80;;;;;;10534866;28;20225;-73
2021/03/22 10:05:16;;;;;;;10.37;3.13;;;8.20;35.80;;;;;;10532577;28;20298;-73
2021/03/22 10:10:23;;;;;;;10.67;3.30;;;8.30;35.50;;;;;;10535876;28;20222;-72
2021/03/22 10:15:30;;;;;;;11.07;3.27;;;8.40;36.00;;;;;;10538328;28;20223;-70
2021/03/22 10:20:39;;;;;;;8.60;2.80;;;8.40;35.50;;;;;;10540692;28;20277;-72
2021/03/22 10:25:44;;;;;;;10.87;3.17;;;8.50;34.60;;;;;;10537099;28;20234;-74
2021/03/22 10:31:01;;;;;;;11.20;3.47;;;8.60;34.80;;;;;;10538989;28;20303;-74
2021/03/22 10:36:05;;;;;;;11.67;3.83;;;8.50;33.90;;;;;;10539179;28;20215;-74
2021/03/22 10:41:29;;;;;;;7.80;3.07;;;8.60;35.30;;;;;;10538488;28;20223;-74
2021/03/22 10:46:33;;;;;;;7.50;3.00;;;8.70;35.00;;;;;;10536310;28;20226;-74
2021/03/22 10:51:42;;;;;;;12.07;3.00;;;8.90;35.20;;;;;;10539040;28;20219;-73
2021/03/22 10:56:54;;;;;;;8.03;3.27;;;9.10;34.50;;;;;;10536390;28;20302;-74
2021/03/22 11:02:00;;;;;;;7.77;2.90;;;9.20;33.80;;;;;;10533106;28;20221;-73
2021/03/22 11:07:15;;;;;;;7.03;2.67;;;9.30;33.80;;;;;;10530508;28;20216;-73
2021/03/22 11:12:17;;;;;;;12.23;2.80;;;9.30;31.70;;;;;;10537646;28;20219;-73
2021/03/22 11:17:20;;;;;;;7.47;2.50;;;9.30;33.40;;;;;;10537575;28;20231;-72
2021/03/22 11:22:30;;;;;;;11.27;3.03;;;9.20;32.60;;;;;;10537180;28;20280;-72
2021/03/22 11:27:57;;;;;;;11.63;3.40;;;9.20;33.10;;;;;;10536884;28;20254;-71
2021/03/22 11:33:00;;;;;;;7.63;2.73;;;9.20;32.40;;;;;;10534033;28;20582;-72
2021/03/22 11:38:04;;;;;;;7.93;2.50;;;9.20;33.30;;;;;;10536117;28;20227;-73
2021/03/22 11:43:26;;;;;;;7.27;2.47;;;9.20;32.80;;;;;;10527620;28;20220;-74
2021/03/22 11:48:32;;;;;;;7.33;2.63;;;9.10;31.40;;;;;;10536834;28;20284;-74
2021/03/22 11:54:07;;;;;;;8.50;2.93;;;9.10;32.60;;;;;;10536669;28;20228;-74
2021/03/22 11:59:20;;;;;;;9.00;2.73;;;9.10;31.80;;;;;;10535767;28;20233;-74
2021/03/22 12:04:23;;;;;;;8.13;2.63;;;9.10;32.70;;;;;;10535879;28;20324;-74
2021/03/22 12:09:28;;;;;;;8.17;2.20;;;9.20;33.30;;;;;;10535279;28;20220;-71
2021/03/22 12:14:31;;;;;;;6.50;2.87;;;9.20;32.50;;;;;;10536133;28;20249;-71
2021/03/22 12:19:38;;;;;;;5.90;2.33;;;9.20;32.60;;;;;;10535816;28;20255;-71
2021/03/22 12:24:41;;;;;;;8.33;2.77;;;9.10;32.30;;;;;;10535815;28;20224;-72
2021/03/22 12:29:44;;;;;;;6.90;2.90;;;9.10;32.90;;;;;;10534455;28;20223;-71
2021/03/22 12:34:46;;;;;;;7.93;2.80;;;9.10;32.90;;;;;;10532592;28;20705;-71
2021/03/22 12:39:49;;;;;;;9.93;2.60;;;9.10;32.70;;;;;;10535069;28;20219;-71
2021/03/22 12:44:51;;;;;;;8.50;2.93;;;9.10;32.40;;;;;;10534866;28;20219;-73
2021/03/22 12:49:55;;;;;;;9.67;2.63;;;9.20;32.60;;;;;;10534291;28;20588;-74
2021/03/22 12:54:58;;;;;;;5.73;2.43;;;9.20;32.00;;;;;;10533581;28;20231;-73
2021/03/22 13:00:00;;;;;;;7.70;2.27;;;9.30;32.20;;;;;;10530535;28;20703;-73
2021/03/22 13:05:06;;;;;;;5.73;2.63;;;9.30;32.40;;;;;;10533741;28;20501;-75
2021/03/22 13:10:10;;;;;;;6.67;2.80;;;9.30;32.10;;;;;;10529834;28;20300;-72
2021/03/22 13:15:27;;;;;;;5.93;2.57;;;9.40;31.70;;;;;;10530787;28;20317;-72
2021/03/22 13:20:30;;;;;;;7.67;2.83;;;9.40;31.10;;;;;;10524235;28;20230;-72
2021/03/22 13:25:34;;;;;;;8.53;2.87;;;9.50;32.20;;;;;;10528515;28;20580;-74
2021/03/22 13:30:36;;;;;;;6.90;2.53;;;9.70;31.60;;;;;;10526509;28;20310;-74
2021/03/22 13:35:38;;;;;;;6.17;2.20;;;9.80;31.50;;;;;;10528243;28;20228;-72
2021/03/22 13:40:41;;;;;;;5.50;2.30;;;9.80;31.60;;;;;;10532703;28;20224;-73
2021/03/22 13:45:44;;;;;;;6.73;2.53;;;9.80;31.30;;;;;;10527198;28;20747;-72
2021/03/22 13:50:47;;;;;;;4.10;2.20;;;9.90;31.70;;;;;;10526755;28;20261;-72
2021/03/22 13:55:51;;;;;;;5.60;2.10;;;9.90;31.40;;;;;;10527438;28;20227;-71
2021/03/22 14:00:53;;;;;;;10.40;2.60;;;10.00;30.70;;;;;;10532696;28;20537;-72
2021/03/22 14:06:00;;;;;;;5.53;2.50;;;10.00;30.40;;;;;;10533087;28;20726;-74
2021/03/22 14:11:03;;;;;;;7.27;2.50;;;10.00;30.00;;;;;;10681377;22;20586;-69
2021/03/22 14:16:06;;;;;;;7.63;2.50;;;10.00;30.00;;;;;;10528527;28;20302;-79
2021/03/22 14:21:09;;;;;;;5.10;2.23;;;10.00;30.00;;;;;;10529335;28;20416;-71
2021/03/22 14:26:13;;;;;;;5.73;2.50;;;10.00;29.50;;;;;;10527521;28;20224;-71
2021/03/22 14:31:18;;;;;;;5.60;2.43;;;9.90;30.00;;;;;;10527030;28;20273;-70
2021/03/22 14:36:20;;;;;;;6.27;2.30;;;9.90;30.50;;;;;;10535157;28;20242;-71
2021/03/22 14:41:24;;;;;;;9.57;2.30;;;9.80;30.30;;;;;;10532996;28;20298;-70
2021/03/22 14:46:26;;;;;;;5.57;2.20;;;9.80;30.10;;;;;;10533925;28;20232;-70
2021/03/22 14:51:28;;;;;;;6.10;2.30;;;9.70;30.30;;;;;;10536230;28;20219;-70
2021/03/22 14:56:31;;;;;;;6.23;3.73;;;9.60;30.60;;;;;;10535535;28;20231;-70
2021/03/22 15:01:41;;;;;;;4.37;2.40;;;9.60;30.30;;;;;;10536337;28;20242;-70
2021/03/22 15:06:44;;;;;;;5.50;1.80;;;9.60;30.70;;;;;;10533630;28;20227;-70
2021/03/22 15:11:47;;;;;;;5.73;2.30;;;9.60;30.70;;;;;;10533832;28;20627;-70
2021/03/22 15:16:49;;;;;;;5.17;2.40;;;9.60;30.20;;;;;;10536548;28;20620;-70
2021/03/22 15:21:53;;;;;;;6.00;2.37;;;9.60;30.00;;;;;;10530351;28;20664;-70
2021/03/22 15:26:57;;;;;;;3.13;2.10;;;9.60;30.40;;;;;;10530184;28;20749;-70
2021/03/22 15:31:59;;;;;;;5.30;2.53;;;9.60;31.00;;;;;;10530091;28;20230;-70
2021/03/22 15:37:02;;;;;;;5.33;2.23;;;9.60;30.70;;;;;;10491283;28;20228;-70
2021/03/22 15:42:08;;;;;;;6.10;2.40;;;9.70;31.10;;;;;;10493235;28;20617;-70
2021/03/22 15:47:10;;;;;;;5.20;2.37;;;9.70;30.50;;;;;;10489907;28;20250;-70
2021/03/22 15:52:13;;;;;;;5.43;2.20;;;9.70;30.70;;;;;;10490390;28;20224;-70
2021/03/22 15:57:16;;;;;;;5.20;2.73;;;9.70;30.70;;;;;;10492207;28;20723;-70
2021/03/22 16:02:18;;;;;;;5.70;2.73;;;9.60;30.10;;;;;;10484812;28;20224;-70
2021/03/22 16:07:20;;;;;;;5.37;2.47;;;9.60;30.30;;;;;;10492143;28;20277;-69
2021/03/22 16:12:23;;;;;;;6.53;2.37;;;9.50;30.90;;;;;;10489836;28;20311;-71
2021/03/22 16:17:26;;;;;;;5.07;2.77;;;9.50;30.80;;;;;;10492186;28;20236;-71
2021/03/22 16:22:28;;;;;;;4.10;2.40;;;9.50;30.80;;;;;;10493207;28;20227;-71
2021/03/22 16:27:31;;;;;;;4.67;2.80;;;9.50;30.90;;;;;;10487995;28;20234;-71
2021/03/22 16:32:33;;;;;;;5.43;2.90;;;9.40;30.70;;;;;;10485985;28;20695;-70
2021/03/22 16:37:36;;;;;;;5.27;2.30;;;9.40;30.90;;;;;;10492016;28;20251;-70
2021/03/22 16:42:39;;;;;;;6.00;2.37;;;9.40;31.00;;;;;;10488650;28;20239;-71
2021/03/22 16:47:41;;;;;;;5.40;2.20;;;9.30;31.90;;;;;;10483835;28;20742;-71
2021/03/22 16:52:44;;;;;;;4.20;2.20;;;9.30;31.30;;;;;;10484539;28;20252;-70
2021/03/22 16:57:47;;;;;;;4.77;2.23;;;9.30;32.10;;;;;;10483952;28;20658;-71
2021/03/22 17:02:49;;;;;;;4.83;1.87;;;9.40;31.00;;;;;;10485176;28;20216;-70
2021/03/22 17:07:54;;;;;;;4.57;1.87;;;9.40;31.20;;;;;;10490268;28;20220;-70
2021/03/22 17:12:57;;;;;;;4.97;2.47;;;9.40;31.00;;;;;;10487798;28;20225;-71
2021/03/22 17:18:00;;;;;;;5.00;2.07;;;9.40;31.00;;;;;;10490406;28;20609;-71
2021/03/22 17:23:04;;;;;;;6.17;2.20;;;9.40;30.80;;;;;;10481404;28;20248;-71
2021/03/22 17:28:07;;;;;;;3.37;1.80;;;9.40;31.00;;;;;;10489967;28;20238;-71
2021/03/22 17:33:11;;;;;;;5.97;1.97;;;9.40;30.80;;;;;;10486272;28;20228;-71
2021/03/22 17:38:15;;;;;;;4.53;2.07;;;9.30;30.90;;;;;;10489949;28;20319;-71
2021/03/22 17:43:19;;;;;;;5.43;2.10;;;9.20;30.80;;;;;;10488254;28;20220;-71
2021/03/22 17:48:22;;;;;;;4.63;1.97;;;9.10;30.90;;;;;;10487074;28;20232;-71
2021/03/22 17:53:25;;;;;;;4.30;2.30;;;9.10;31.20;;;;;;10489752;28;20224;-71
2021/03/22 17:58:28;;;;;;;5.67;2.27;;;9.00;31.20;;;;;;10483574;28;20750;-71
2021/03/22 18:03:30;;;;;;;7.70;5.87;;;9.00;31.30;;;;;;10486765;28;20604;-71
2021/03/22 18:08:32;;;;;;;7.37;4.57;;;8.90;31.50;;;;;;10490247;28;20232;-71
2021/03/22 18:13:37;;;;;;;9.83;5.63;;;8.90;32.30;;;;;;10497343;28;20220;-71
2021/03/22 18:18:39;;;;;;;5.73;3.37;;;9.00;31.70;;;;;;10491276;28;20787;-71
2021/03/22 18:23:42;;;;;;;6.77;3.90;;;9.00;31.80;;;;;;10487127;28;20750;-71
2021/03/22 18:28:45;;;;;;;14.97;8.13;;;9.10;31.80;;;;;;10496225;28;20600;-71
2021/03/22 18:33:47;;;;;;;11.27;8.33;;;9.10;31.70;;;;;;10496007;28;20235;-71
2021/03/22 18:38:51;;;;;;;5.57;4.20;;;9.10;31.70;;;;;;10495123;28;20320;-71
2021/03/22 18:43:54;;;;;;;6.27;3.23;;;9.20;31.80;;;;;;10494236;28;20212;-70
2021/03/22 18:48:56;;;;;;;5.63;3.80;;;9.20;31.70;;;;;;10492725;28;20707;-71
2021/03/22 18:53:59;;;;;;;5.33;3.57;;;9.10;31.70;;;;;;10486303;28;20225;-71
2021/03/22 18:59:02;;;;;;;5.37;3.07;;;9.10;31.70;;;;;;10494821;28;20230;-71
2021/03/22 19:04:05;;;;;;;4.17;2.70;;;9.20;31.60;;;;;;10492173;28;20208;-71
2021/03/22 19:09:09;;;;;;;4.77;2.80;;;9.20;31.80;;;;;;10492159;28;20240;-71
2021/03/22 19:14:12;;;;;;;5.77;2.90;;;9.10;31.80;;;;;;10493090;28;20278;-71
2021/03/22 19:19:15;;;;;;;5.03;3.03;;;9.10;31.70;;;;;;10490997;28;20217;-71
2021/03/22 19:24:17;;;;;;;5.93;3.00;;;9.10;31.80;;;;;;10494949;28;20299;-71
2021/03/22 19:29:24;;;;;;;3.70;2.60;;;9.10;31.90;;;;;;10491552;28;20608;-71
2021/03/22 19:34:27;;;;;;;4.87;2.60;;;9.00;32.00;;;;;;10493082;28;20234;-71
2021/03/22 19:39:29;;;;;;;5.50;2.90;;;9.00;32.00;;;;;;10491592;28;20221;-71
2021/03/22 19:44:32;;;;;;;6.30;3.20;;;9.00;32.00;;;;;;10493741;28;20247;-71
2021/03/22 19:49:34;;;;;;;5.70;3.10;;;9.00;32.10;;;;;;10490584;28;20228;-71
2021/03/22 19:54:36;;;;;;;6.07;3.30;;;9.00;32.10;;;;;;10482264;28;20307;-71
2021/03/22 19:59:39;;;;;;;5.17;3.10;;;9.00;32.00;;;;;;10479415;28;20235;-71
2021/03/22 20:04:43;;;;;;;5.20;3.27;;;9.00;32.10;;;;;;10479529;28;20220;-70
2021/03/22 20:09:47;;;;;;;4.63;2.90;;;9.00;32.30;;;;;;10483021;28;20220;-70
2021/03/22 20:14:51;;;;;;;6.40;3.03;;;8.90;32.30;;;;;;10485168;28;20228;-70
2021/03/22 20:19:54;;;;;;;5.00;2.93;;;8.90;32.30;;;;;;10483292;28;20224;-70
2021/03/22 20:24:56;;;;;;;6.23;2.90;;;8.80;32.40;;;;;;10481438;28;20216;-71
2021/03/22 20:29:59;;;;;;;5.87;2.93;;;8.80;32.40;;;;;;10481938;28;20758;-71
2021/03/22 20:35:01;;;;;;;5.87;2.87;;;8.80;32.50;;;;;;10480371;28;20212;-71
2021/03/22 20:40:05;;;;;;;5.33;3.20;;;8.70;32.60;;;;;;10480217;28;20220;-71
2021/03/22 20:45:09;;;;;;;4.90;3.20;;;8.70;32.50;;;;;;10484071;28;20220;-71
2021/03/22 20:50:12;;;;;;;5.77;3.33;;;8.70;32.60;;;;;;10482488;28;20315;-70
2021/03/22 20:55:16;;;;;;;4.63;3.50;;;8.60;32.60;;;;;;10477168;28;20228;-70
2021/03/22 21:00:22;;;;;;;6.23;3.63;;;8.60;32.80;;;;;;10481298;28;20224;-70
2021/03/22 21:05:26;;;;;;;4.20;3.20;;;8.50;32.90;;;;;;10480961;28;20228;-70
2021/03/22 21:10:31;;;;;;;4.13;3.23;;;8.50;33.00;;;;;;10476074;28;20224;-70
2021/03/22 21:15:35;;;;;;;6.00;3.13;;;8.50;33.10;;;;;;10478999;28;20231;-72
2021/03/22 21:20:40;;;;;;;4.73;3.43;;;8.40;33.20;;;;;;10476992;28;20647;-71
2021/03/22 21:25:43;;;;;;;5.23;3.30;;;8.40;33.20;;;;;;10479594;28;20224;-71
2021/03/22 21:30:49;;;;;;;5.03;3.40;;;8.40;33.10;;;;;;10481624;28;20232;-71
2021/03/22 21:35:51;;;;;;;5.73;3.37;;;8.40;33.30;;;;;;10481040;28;20232;-71
2021/03/22 21:40:55;;;;;;;6.67;3.33;;;8.40;33.20;;;;;;10476184;28;20231;-71
2021/03/22 21:45:58;;;;;;;4.93;3.40;;;8.40;33.20;;;;;;10483041;28;20597;-71
2021/03/22 21:51:01;;;;;;;7.40;3.70;;;8.40;33.40;;;;;;10482244;28;20236;-72
2021/03/22 21:56:06;;;;;;;4.90;3.33;;;8.30;33.20;;;;;;10483992;28;20810;-72
2021/03/22 22:01:09;;;;;;;4.27;2.87;;;8.30;33.40;;;;;;10475529;28;21116;-72
2021/03/22 22:06:12;;;;;;;5.67;3.43;;;8.30;33.40;;;;;;10484205;28;20235;-72
2021/03/22 22:11:16;;;;;;;4.70;3.13;;;8.30;33.40;;;;;;10480405;28;20232;-72
2021/03/22 22:16:19;;;;;;;6.73;3.60;;;8.30;33.40;;;;;;10483933;28;20267;-72
2021/03/22 22:21:23;;;;;;;5.73;3.73;;;8.20;33.50;;;;;;10482323;28;20249;-72
2021/03/22 22:26:25;;;;;;;4.87;3.00;;;8.20;33.40;;;;;;10482438;28;20234;-72
2021/03/22 22:31:28;;;;;;;5.53;3.10;;;8.20;33.40;;;;;;10483588;28;20601;-72
2021/03/22 22:36:32;;;;;;;4.27;2.90;;;8.20;33.70;;;;;;10480486;28;20239;-72
2021/03/22 22:41:34;;;;;;;5.57;3.43;;;8.20;33.50;;;;;;10483587;28;20230;-72
2021/03/22 22:46:37;;;;;;;3.93;3.30;;;8.20;33.60;;;;;;10484572;28;20243;-72
2021/03/22 22:51:40;;;;;;;4.00;3.30;;;8.20;33.70;;;;;;10484744;28;20324;-72
2021/03/22 22:56:42;;;;;;;3.70;3.00;;;8.20;33.70;;;;;;10494463;28;20228;-72
2021/03/22 23:01:45;;;;;;;4.40;3.27;;;8.20;33.80;;;;;;10486474;28;20698;-72
2021/03/22 23:06:49;;;;;;;5.17;3.23;;;8.20;33.90;;;;;;10495312;28;20278;-72
2021/03/22 23:11:52;;;;;;;3.90;3.30;;;8.10;33.70;;;;;;10494072;28;20311;-72
2021/03/22 23:16:55;;;;;;;5.50;3.50;;;8.00;33.80;;;;;;10493791;28;20631;-72
2021/03/22 23:21:58;;;;;;;4.63;3.50;;;8.00;34.10;;;;;;10489393;28;20700;-72
2021/03/22 23:27:01;;;;;;;4.57;3.23;;;7.90;34.00;;;;;;10491021;28;20236;-72
2021/03/22 23:32:10;;;;;;;5.53;3.50;;;7.80;33.90;;;;;;10493236;28;20615;-72
2021/03/22 23:37:13;;;;;;;3.97;3.20;;;7.70;34.40;;;;;;10494501;28;20236;-72
2021/03/22 23:42:15;;;;;;;5.97;3.50;;;7.70;34.20;;;;;;10492617;28;20231;-72
2021/03/22 23:47:18;;;;;;;4.07;3.13;;;7.70;34.30;;;;;;10488392;28;20231;-72
2021/03/22 23:52:21;;;;;;;4.27;3.20;;;7.60;34.40;;;;;;10491493;28;20598;-72
2021/03/22 23:57:23;;;;;;;5.40;3.43;;;7.60;34.50;;;;;;10493812;28;20228;-71
